Time;durP1;ratioP1;P1;durP2;ratioP2;P2;SDS_P1;SDS_P2;PMS_P1;PMS_P2;Temp;Humidity;BMP_temperature;BMP_pressure;BME280_temperature;BME280_humidity;BME280_pressure;Samples;Min_cycle;Max_cycle;Signal;HPM_P1;HPM_P2
2021/01/29 00:02:14;;;;;;;1.10;1.00;;;8.40;99.90;;;;;;5028944;28;20066;-74
2021/01/29 00:04:40;;;;;;;1.83;1.00;;;8.30;99.90;;;;;;5029968;28;20181;-74
2021/01/29 00:07:07;;;;;;;1.60;1.10;;;8.30;99.90;;;;;;5028524;28;20221;-74
2021/01/29 00:09:34;;;;;;;2.22;1.30;;;8.30;99.90;;;;;;5030035;28;20208;-74
2021/01/29 00:12:00;;;;;;;2.50;1.15;;;8.30;99.90;;;;;;5029575;28;20093;-73
2021/01/29 00:14:26;;;;;;;1.30;1.20;;;8.20;99.90;;;;;;5029306;28;20241;-73
2021/01/29 00:16:52;;;;;;;2.17;1.40;;;8.10;99.90;;;;;;5030042;28;20390;-74
2021/01/29 00:19:18;;;;;;;1.08;1.08;;;8.10;99.90;;;;;;5028512;28;20030;-74
2021/01/29 00:21:43;;;;;;;1.55;1.25;;;8.10;99.90;;;;;;5050644;28;20040;-70
2021/01/29 00:24:09;;;;;;;1.05;0.98;;;8.10;99.90;;;;;;5038485;28;20034;-74
2021/01/29 00:26:35;;;;;;;1.90;1.23;;;8.00;99.90;;;;;;5030474;28;20477;-73
2021/01/29 00:29:01;;;;;;;1.77;1.20;;;8.00;99.90;;;;;;5032042;28;20132;-72
2021/01/29 00:31:27;;;;;;;1.60;1.50;;;8.00;99.90;;;;;;5034850;28;20026;-75
2021/01/29 00:33:52;;;;;;;1.92;1.10;;;7.90;99.90;;;;;;5033096;28;20209;-74
2021/01/29 00:36:18;;;;;;;1.27;1.20;;;7.90;99.90;;;;;;5034123;28;20022;-74
2021/01/29 00:38:43;;;;;;;1.40;1.30;;;7.80;99.90;;;;;;5033696;28;20039;-74
2021/01/29 00:41:09;;;;;;;1.52;1.30;;;7.80;99.90;;;;;;5034045;28;20052;-72
2021/01/29 00:43:35;;;;;;;3.10;1.55;;;7.80;99.90;;;;;;5033888;28;20148;-74
2021/01/29 00:46:01;;;;;;;2.85;1.30;;;7.70;99.90;;;;;;5032913;28;20048;-74
2021/01/29 00:48:26;;;;;;;2.25;1.45;;;7.70;99.90;;;;;;5033535;28;20041;-74
2021/01/29 00:50:52;;;;;;;2.45;1.52;;;7.60;99.90;;;;;;5032086;28;20029;-74
2021/01/29 00:53:18;;;;;;;2.35;1.48;;;7.60;99.90;;;;;;5032815;28;20056;-74
2021/01/29 00:55:43;;;;;;;1.35;1.15;;;7.70;99.90;;;;;;5033797;28;20025;-72
2021/01/29 00:58:09;;;;;;;1.15;1.10;;;7.80;99.90;;;;;;5033180;28;20033;-74
2021/01/29 01:00:35;;;;;;;2.20;1.40;;;7.80;99.90;;;;;;5033382;28;20402;-74
2021/01/29 01:03:00;;;;;;;1.25;1.08;;;7.80;99.90;;;;;;5031790;28;20117;-75
2021/01/29 01:05:27;;;;;;;1.05;0.95;;;7.80;99.90;;;;;;5031854;28;20091;-74
2021/01/29 01:07:53;;;;;;;1.15;1.05;;;7.80;99.90;;;;;;5033088;28;20024;-74
2021/01/29 01:10:20;;;;;;;1.48;1.10;;;7.70;99.90;;;;;;5033027;28;20112;-74
2021/01/29 01:12:45;;;;;;;1.10;1.00;;;7.70;99.90;;;;;;5032618;28;20025;-74
2021/01/29 01:15:18;;;;;;;1.65;1.20;;;7.70;99.90;;;;;;5033159;28;20377;-74
2021/01/29 01:17:44;;;;;;;1.33;0.95;;;7.70;99.90;;;;;;5032982;28;20119;-72
2021/01/29 01:20:14;;;;;;;2.17;1.75;;;7.80;99.90;;;;;;5031896;28;20025;-74
2021/01/29 01:22:40;;;;;;;1.20;1.10;;;7.80;99.90;;;;;;5033124;28;20026;-74
2021/01/29 01:25:07;;;;;;;1.10;1.00;;;7.80;99.90;;;;;;5032766;28;20029;-74
2021/01/29 01:27:32;;;;;;;3.35;1.02;;;7.80;99.90;;;;;;5033787;28;20051;-72
2021/01/29 01:29:58;;;;;;;1.15;1.05;;;7.80;99.90;;;;;;5033159;28;20124;-74
2021/01/29 01:32:24;;;;;;;1.00;0.80;;;7.80;99.90;;;;;;5032868;28;20022;-74
2021/01/29 01:34:49;;;;;;;0.80;0.80;;;7.80;99.90;;;;;;5030992;28;20018;-74
2021/01/29 01:37:15;;;;;;;1.20;1.00;;;7.90;99.90;;;;;;5032334;28;20030;-74
2021/01/29 01:39:41;;;;;;;1.08;0.80;;;8.00;99.90;;;;;;5032281;28;20021;-74
2021/01/29 01:42:06;;;;;;;1.10;0.90;;;8.00;99.90;;;;;;5032249;28;20530;-74
2021/01/29 01:44:38;;;;;;;1.65;1.02;;;8.00;99.90;;;;;;5031807;28;20055;-74
2021/01/29 01:47:19;;;;;;;0.80;0.80;;;8.00;99.90;;;;;;5031930;28;20055;-74
2021/01/29 01:49:46;;;;;;;0.80;0.80;;;8.00;99.90;;;;;;5030720;28;20040;-74
2021/01/29 01:52:35;;;;;;;0.77;0.77;;;8.00;99.90;;;;;;5031985;28;20029;-74
2021/01/29 01:55:09;;;;;;;1.85;0.90;;;8.20;99.90;;;;;;5031845;28;20022;-72
2021/01/29 01:57:37;;;;;;;2.58;0.73;;;8.20;99.90;;;;;;5031973;28;20093;-72
2021/01/29 02:00:17;;;;;;;0.70;0.70;;;8.20;99.90;;;;;;5032408;28;20109;-72
2021/01/29 02:02:46;;;;;;;3.85;0.88;;;8.20;99.90;;;;;;5031454;28;20104;-74
2021/01/29 02:05:19;;;;;;;0.75;0.60;;;8.30;99.90;;;;;;5031699;28;20083;-73
2021/01/29 02:07:50;;;;;;;14.27;0.85;;;8.30;99.90;;;;;;5031809;28;20033;-74
2021/01/29 02:10:16;;;;;;;0.70;0.60;;;8.40;99.90;;;;;;5031666;28;20045;-74
2021/01/29 02:12:42;;;;;;;0.52;0.40;;;8.40;99.90;;;;;;5031324;28;20018;-73
2021/01/29 02:15:14;;;;;;;1.10;0.60;;;8.60;99.90;;;;;;5031373;28;20033;-74
2021/01/29 02:17:48;;;;;;;0.68;0.68;;;8.60;99.90;;;;;;5031670;28;20083;-73
2021/01/29 02:20:39;;;;;;;0.47;0.40;;;8.60;99.90;;;;;;5031723;28;20025;-74
2021/01/29 02:23:16;;;;;;;0.50;0.30;;;8.60;99.90;;;;;;5031156;28;20049;-74
2021/01/29 02:26:10;;;;;;;0.50;0.40;;;8.70;99.90;;;;;;5031598;28;20025;-72
2021/01/29 02:28:38;;;;;;;0.95;0.60;;;8.80;99.90;;;;;;5062128;23;20041;-70
2021/01/29 02:31:25;;;;;;;0.65;0.60;;;8.70;99.90;;;;;;5048472;28;20029;-70
2021/01/29 02:34:08;;;;;;;0.68;0.50;;;8.70;99.90;;;;;;5052508;28;20057;-71
2021/01/29 02:37:12;;;;;;;0.40;0.40;;;8.80;99.90;;;;;;5053136;28;20036;-70
2021/01/29 02:40:02;;;;;;;0.50;0.50;;;8.70;99.90;;;;;;5033218;28;20029;-70
2021/01/29 02:43:03;;;;;;;0.90;0.50;;;8.80;99.90;;;;;;5032717;28;20391;-70
2021/01/29 02:45:43;;;;;;;0.50;0.50;;;8.80;99.90;;;;;;5031853;28;20499;-70
2021/01/29 02:48:35;;;;;;;0.30;0.30;;;8.80;99.90;;;;;;5032902;28;20075;-70
2021/01/29 02:51:14;;;;;;;0.45;0.40;;;8.90;99.90;;;;;;5032524;28;20021;-71
2021/01/29 02:53:59;;;;;;;0.35;0.35;;;8.90;99.90;;;;;;5031029;28;20472;-70
2021/01/29 02:56:35;;;;;;;0.40;0.40;;;8.90;99.90;;;;;;5032783;28;20036;-70
2021/01/29 02:59:13;;;;;;;0.40;0.40;;;9.00;99.90;;;;;;5032750;28;20025;-70
2021/01/29 03:01:46;;;;;;;0.30;0.30;;;9.00;99.90;;;;;;5036195;28;20118;-70
2021/01/29 03:04:29;;;;;;;0.43;0.30;;;9.00;99.90;;;;;;5035360;28;20026;-70
2021/01/29 03:07:11;;;;;;;0.38;0.30;;;9.00;99.90;;;;;;5036403;28;20028;-70
2021/01/29 03:09:42;;;;;;;1.60;0.50;;;9.20;99.90;;;;;;5033949;28;20200;-70
2021/01/29 03:12:19;;;;;;;4.95;0.63;;;9.20;99.90;;;;;;5038099;28;20021;-70
2021/01/29 03:15:12;;;;;;;0.40;0.40;;;9.10;99.90;;;;;;5035322;28;20109;-70
2021/01/29 03:17:44;;;;;;;;;;;9.20;99.90;;;;;;5033087;28;20054;-70
2021/01/29 03:20:18;;;;;;;0.20;0.20;;;9.40;99.90;;;;;;5039675;28;20329;-75
2021/01/29 03:22:52;;;;;;;0.35;0.22;;;9.40;99.90;;;;;;5034369;28;20391;-74
2021/01/29 03:25:26;;;;;;;0.28;0.28;;;9.40;99.90;;;;;;5035327;28;20091;-73
2021/01/29 03:27:56;;;;;;;2.55;0.38;;;9.50;99.90;;;;;;5034832;28;20037;-74
2021/01/29 03:30:26;;;;;;;1.63;0.30;;;9.40;99.90;;;;;;5035169;28;20530;-74
2021/01/29 03:32:55;;;;;;;0.75;0.32;;;9.30;99.90;;;;;;5036264;28;20023;-74
2021/01/29 03:35:27;;;;;;;0.20;0.20;;;9.30;99.90;;;;;;5035445;28;20052;-74
2021/01/29 03:38:16;;;;;;;1.45;0.32;;;9.20;99.90;;;;;;5034403;28;20021;-73
2021/01/29 03:40:44;;;;;;;0.60;0.40;;;9.10;99.90;;;;;;5033074;28;20445;-74
2021/01/29 03:43:18;;;;;;;0.40;0.30;;;9.20;99.90;;;;;;5032053;28;20056;-74
2021/01/29 03:45:57;;;;;;;0.30;0.30;;;9.20;99.90;;;;;;5032346;28;20049;-73
2021/01/29 03:48:47;;;;;;;1.42;0.30;;;9.10;99.90;;;;;;5032293;28;20056;-72
2021/01/29 03:51:35;;;;;;;0.20;0.20;;;9.00;99.90;;;;;;5030220;28;20510;-73
2021/01/29 03:54:16;;;;;;;0.22;0.22;;;9.00;99.90;;;;;;5029650;28;20022;-73
2021/01/29 03:57:09;;;;;;;4.35;0.43;;;9.00;99.90;;;;;;5031394;28;20033;-74
2021/01/29 03:59:42;;;;;;;0.38;0.28;;;9.00;99.90;;;;;;5031908;28;20526;-74
2021/01/29 04:02:17;;;;;;;0.52;0.30;;;9.00;99.90;;;;;;5031527;28;20025;-74
2021/01/29 04:05:03;;;;;;;0.60;0.30;;;9.00;99.90;;;;;;5030911;28;20163;-73
2021/01/29 04:07:47;;;;;;;1.38;0.30;;;8.80;99.90;;;;;;5031631;28;20104;-75
2021/01/29 04:10:15;;;;;;;0.52;0.25;;;9.00;99.90;;;;;;5031663;28;20368;-75
2021/01/29 04:12:53;;;;;;;0.65;0.30;;;8.90;99.90;;;;;;5030591;28;20033;-74
2021/01/29 04:15:37;;;;;;;0.80;0.40;;;9.00;99.90;;;;;;5031199;28;20029;-74
2021/01/29 04:18:28;;;;;;;1.30;0.60;;;9.00;99.90;;;;;;5031402;28;20017;-74
2021/01/29 04:21:12;;;;;;;1.33;0.38;;;8.90;99.90;;;;;;5030413;28;20025;-75
2021/01/29 04:24:01;;;;;;;1.88;0.30;;;8.80;99.90;;;;;;5030960;28;20545;-75
2021/01/29 04:26:35;;;;;;;2.47;0.50;;;8.90;99.90;;;;;;5031564;28;20352;-76
2021/01/29 04:29:13;;;;;;;1.67;0.38;;;8.80;99.90;;;;;;5030943;28;20057;-74
2021/01/29 04:31:40;;;;;;;1.27;0.38;;;8.90;99.90;;;;;;5030304;28;20026;-76
2021/01/29 04:34:11;;;;;;;0.57;0.30;;;8.90;99.90;;;;;;5031074;28;20100;-75
2021/01/29 04:36:38;;;;;;;0.65;0.63;;;8.80;99.90;;;;;;5031302;28;20104;-75
2021/01/29 04:39:16;;;;;;;0.50;0.40;;;8.90;99.90;;;;;;5031618;28;20095;-76
2021/01/29 04:42:23;;;;;;;2.00;0.50;;;8.80;99.90;;;;;;5031470;28;20109;-74
2021/01/29 04:45:07;;;;;;;4.40;1.13;;;8.80;99.90;;;;;;5028937;28;20510;-76
2021/01/29 04:48:01;;;;;;;0.70;0.40;;;8.80;99.90;;;;;;5031330;28;20447;-72
2021/01/29 04:50:54;;;;;;;0.40;0.40;;;8.80;99.90;;;;;;5031546;28;20061;-75
2021/01/29 04:53:38;;;;;;;0.28;0.28;;;8.80;99.90;;;;;;5030727;28;20025;-74
2021/01/29 04:56:21;;;;;;;1.80;0.40;;;8.80;99.90;;;;;;5031946;28;20384;-76
2021/01/29 04:58:59;;;;;;;0.38;0.20;;;8.80;99.90;;;;;;5031395;28;20120;-73
2021/01/29 05:01:39;;;;;;;0.50;0.20;;;8.80;99.90;;;;;;5031798;28;20026;-75
2021/01/29 05:04:43;;;;;;;0.68;0.25;;;8.80;99.90;;;;;;5030977;28;20036;-75
2021/01/29 05:07:30;;;;;;;0.20;0.20;;;8.80;99.90;;;;;;5031523;28;20487;-74
2021/01/29 05:10:28;;;;;;;0.17;0.17;;;8.80;99.90;;;;;;5031585;28;20045;-73
2021/01/29 05:13:05;;;;;;;0.22;0.22;;;8.80;99.90;;;;;;5029992;28;20109;-74
2021/01/29 05:16:00;;;;;;;0.10;0.10;;;8.90;99.90;;;;;;5034358;28;20017;-73
2021/01/29 05:18:44;;;;;;;0.40;0.30;;;8.90;99.90;;;;;;5012655;28;20033;-74
2021/01/29 05:21:40;;;;;;;2.38;0.20;;;8.90;99.90;;;;;;5034730;28;20026;-74
2021/01/29 05:24:40;;;;;;;1.30;0.35;;;9.00;99.90;;;;;;5034057;28;20120;-74
2021/01/29 05:27:45;;;;;;;3.10;0.10;;;8.90;99.90;;;;;;5035569;28;20053;-73
2021/01/29 05:30:47;;;;;;;2.90;0.20;;;8.80;99.90;;;;;;5035713;28;20025;-74
2021/01/29 05:33:25;;;;;;;;;;;8.90;99.90;;;;;;5026010;28;20022;-73
2021/01/29 05:36:02;;;;;;;0.43;0.28;;;8.80;99.90;;;;;;5029836;28;20014;-74
2021/01/29 05:38:49;;;;;;;1.00;0.43;;;8.80;99.90;;;;;;5031959;28;20039;-73
2021/01/29 05:41:33;;;;;;;2.05;0.60;;;8.80;99.90;;;;;;5032775;28;20021;-73
2021/01/29 05:44:13;;;;;;;0.82;0.40;;;8.70;99.90;;;;;;5033502;28;20030;-72
2021/01/29 05:46:57;;;;;;;2.75;0.70;;;8.60;99.90;;;;;;5034001;28;20029;-72
2021/01/29 05:49:32;;;;;;;0.88;0.88;;;8.60;99.90;;;;;;5033645;28;20056;-72
2021/01/29 05:52:16;;;;;;;0.85;0.80;;;8.60;99.90;;;;;;5033978;28;20056;-72
2021/01/29 05:55:13;;;;;;;1.38;0.65;;;8.60;99.90;;;;;;5032972;28;20534;-73
2021/01/29 05:58:09;;;;;;;0.88;0.40;;;8.50;99.90;;;;;;4964306;28;20038;-73
2021/01/29 06:01:19;;;;;;;0.93;0.47;;;8.40;99.90;;;;;;5032581;28;20060;-73
2021/01/29 06:04:00;;;;;;;0.30;0.30;;;8.30;99.90;;;;;;4995745;28;20029;-74
2021/01/29 06:06:53;;;;;;;1.85;0.40;;;8.20;99.90;;;;;;5033372;28;20109;-73
2021/01/29 06:09:18;;;;;;;;;;;8.40;99.90;;;;;;5034563;28;20115;-67
2021/01/29 06:11:53;;;;;;;3.13;0.50;;;8.80;99.90;;;;;;5033521;28;19944;-66
2021/01/29 06:14:47;;;;;;;3.10;0.45;;;9.00;99.90;;;;;;5031620;28;20053;-68
2021/01/29 06:17:48;;;;;;;1.13;0.40;;;9.10;99.90;;;;;;5033684;28;20041;-68
2021/01/29 06:20:24;;;;;;;0.35;0.30;;;9.20;99.90;;;;;;5033759;28;20491;-73
2021/01/29 06:22:59;;;;;;;1.80;0.32;;;9.30;99.90;;;;;;5031775;28;20088;-73
2021/01/29 06:25:52;;;;;;;4.15;0.45;;;9.10;99.90;;;;;;5032794;28;20079;-73
2021/01/29 06:28:38;;;;;;;0.40;0.40;;;8.80;99.90;;;;;;5032047;28;20043;-72
2021/01/29 06:31:22;;;;;;;1.98;0.50;;;8.70;99.90;;;;;;5033549;28;20014;-70
2021/01/29 06:34:36;;;;;;;2.47;0.40;;;8.60;99.90;;;;;;5032552;28;20036;-72
2021/01/29 06:37:10;;;;;;;0.30;0.30;;;8.50;99.90;;;;;;4990646;28;20027;-72
2021/01/29 06:40:03;;;;;;;2.05;0.50;;;8.60;99.90;;;;;;5024815;28;20025;-72
2021/01/29 06:42:45;;;;;;;0.93;0.40;;;8.70;99.90;;;;;;5033869;28;20391;-71
2021/01/29 06:45:21;;;;;;;2.47;0.43;;;8.80;99.90;;;;;;5033681;28;20490;-72
2021/01/29 06:48:05;;;;;;;0.77;0.30;;;8.90;99.90;;;;;;5033079;28;20025;-72
2021/01/29 06:51:08;;;;;;;0.10;0.10;;;9.00;99.90;;;;;;5033020;28;20025;-72
2021/01/29 06:53:43;;;;;;;0.13;0.13;;;9.00;99.90;;;;;;5032612;28;20028;-73
2021/01/29 06:56:48;;;;;;;0.52;0.10;;;9.00;99.90;;;;;;5032977;28;20018;-71
2021/01/29 06:59:31;;;;;;;0.55;0.20;;;9.10;99.90;;;;;;5033102;28;20025;-68
2021/01/29 07:02:35;;;;;;;0.20;0.20;;;9.10;99.90;;;;;;5026464;28;20021;-69
2021/01/29 07:05:15;;;;;;;1.85;0.35;;;9.10;99.90;;;;;;5032884;28;20061;-71
2021/01/29 07:07:46;;;;;;;0.28;0.28;;;9.10;99.90;;;;;;5031848;28;20072;-72
2021/01/29 07:10:46;;;;;;;0.30;0.30;;;9.00;99.90;;;;;;5032275;28;20029;-67
2021/01/29 07:13:36;;;;;;;0.32;0.20;;;9.10;99.90;;;;;;5032468;28;20561;-67
2021/01/29 07:16:29;;;;;;;0.30;0.30;;;8.90;99.90;;;;;;5033154;28;20479;-71
2021/01/29 07:19:13;;;;;;;2.72;0.30;;;8.80;99.90;;;;;;5014781;28;20029;-69
2021/01/29 07:22:18;;;;;;;0.93;0.50;;;8.70;99.90;;;;;;5017316;28;20033;-72
2021/01/29 07:25:04;;;;;;;1.92;0.57;;;8.80;99.90;;;;;;5029175;28;20032;-71
2021/01/29 07:28:10;;;;;;;0.40;0.40;;;8.80;99.90;;;;;;5032433;28;20112;-71
2021/01/29 07:30:49;;;;;;;2.08;0.75;;;8.80;99.90;;;;;;5031980;28;20025;-71
2021/01/29 07:33:15;;;;;;;0.85;0.70;;;8.80;99.90;;;;;;5030028;28;20026;-72
2021/01/29 07:35:54;;;;;;;0.40;0.40;;;8.90;99.90;;;;;;5032746;28;20021;-72
2021/01/29 07:39:06;;;;;;;0.35;0.35;;;8.90;99.90;;;;;;5031910;28;20325;-72
2021/01/29 07:41:49;;;;;;;0.50;0.40;;;8.90;99.90;;;;;;5032897;28;20025;-72
2021/01/29 07:44:33;;;;;;;0.20;0.20;;;8.90;99.90;;;;;;5030211;28;20025;-72
2021/01/29 07:47:29;;;;;;;0.35;0.30;;;8.90;99.90;;;;;;5032253;28;20046;-71
2021/01/29 07:50:13;;;;;;;0.52;0.45;;;8.90;99.90;;;;;;5032502;28;20107;-71
2021/01/29 07:52:45;;;;;;;24.85;11.27;;;9.30;99.90;;;;;;5032671;28;20025;-71
2021/01/29 07:55:22;;;;;;;1.15;1.15;;;9.00;99.90;;;;;;5033809;28;20025;-70
2021/01/29 07:57:51;;;;;;;0.65;0.43;;;8.90;99.90;;;;;;5034600;28;20033;-71
2021/01/29 08:00:43;;;;;;;1.75;0.57;;;9.00;99.90;;;;;;5034576;28;20103;-71
2021/01/29 08:03:21;;;;;;;2.08;0.55;;;9.00;99.90;;;;;;5036058;28;20029;-71
2021/01/29 08:05:49;;;;;;;2.33;0.70;;;9.10;99.90;;;;;;5045679;28;20033;-71
2021/01/29 08:08:22;;;;;;;0.40;0.40;;;9.10;99.90;;;;;;5046462;28;20100;-72
2021/01/29 08:10:51;;;;;;;0.30;0.30;;;9.20;99.90;;;;;;5042773;28;20021;-74
2021/01/29 08:13:40;;;;;;;2.05;0.55;;;9.20;99.90;;;;;;5035299;28;20032;-72
2021/01/29 08:16:38;;;;;;;0.52;0.40;;;9.30;99.90;;;;;;5037271;28;20064;-73
2021/01/29 08:19:27;;;;;;;0.82;0.30;;;9.40;99.90;;;;;;5018946;28;20038;-71
2021/01/29 08:22:13;;;;;;;0.82;0.30;;;9.60;99.90;;;;;;5036636;28;20426;-71
2021/01/29 08:24:49;;;;;;;0.28;0.28;;;10.30;99.90;;;;;;5032107;28;20053;-72
2021/01/29 08:27:51;;;;;;;0.40;0.40;;;11.60;99.90;;;;;;5032915;28;20036;-72
2021/01/29 08:30:22;;;;;;;0.40;0.25;;;13.20;99.90;;;;;;5012697;28;20063;-71
2021/01/29 08:32:54;;;;;;;2.17;0.50;;;13.10;99.90;;;;;;5013128;28;20056;-70
2021/01/29 08:35:34;;;;;;;0.47;0.35;;;13.70;99.90;;;;;;5015327;28;20026;-72
2021/01/29 08:38:16;;;;;;;0.52;0.20;;;14.60;99.90;;;;;;5014457;28;20084;-73
2021/01/29 08:41:10;;;;;;;0.65;0.40;;;14.90;99.90;;;;;;5013913;28;20088;-72
2021/01/29 08:44:00;;;;;;;0.20;0.20;;;15.60;99.90;;;;;;5032986;28;20029;-71
2021/01/29 08:46:32;;;;;;;0.50;0.30;;;16.70;99.90;;;;;;5032938;28;20083;-73
2021/01/29 08:49:16;;;;;;;0.65;0.30;;;17.20;99.90;;;;;;5025956;28;20030;-71
2021/01/29 08:51:53;;;;;;;1.33;0.52;;;15.80;99.90;;;;;;5039734;28;20025;-72
2021/01/29 08:55:02;;;;;;;0.40;0.40;;;13.70;99.90;;;;;;5034638;28;20036;-71
2021/01/29 08:57:48;;;;;;;0.45;0.30;;;12.80;99.90;;;;;;5035736;28;20029;-71
2021/01/29 09:00:35;;;;;;;0.30;0.30;;;12.00;99.90;;;;;;5035616;28;20024;-72
2021/01/29 09:03:07;;;;;;;0.43;0.28;;;11.60;99.90;;;;;;5035565;28;20029;-71
2021/01/29 09:05:34;;;;;;;0.52;0.20;;;11.70;99.90;;;;;;5035385;28;20056;-70
2021/01/29 09:08:03;;;;;;;1.88;0.40;;;11.90;99.90;;;;;;5035950;28;20159;-72
2021/01/29 09:10:32;;;;;;;0.63;0.30;;;11.60;99.90;;;;;;5035849;28;20101;-70
2021/01/29 09:13:04;;;;;;;0.20;0.20;;;12.10;99.90;;;;;;5035288;28;20080;-70
2021/01/29 09:15:51;;;;;;;1.25;0.30;;;13.90;99.90;;;;;;5035263;28;20026;-70
2021/01/29 09:18:40;;;;;;;1.48;0.30;;;14.50;99.90;;;;;;5035634;28;20021;-71
2021/01/29 09:21:18;;;;;;;0.65;0.43;;;13.60;99.90;;;;;;5035618;28;20468;-71
2021/01/29 09:24:02;;;;;;;0.77;0.40;;;15.10;99.90;;;;;;5035150;28;20053;-70
2021/01/29 09:26:53;;;;;;;0.45;0.40;;;15.50;99.90;;;;;;5035443;28;20056;-70
2021/01/29 09:29:28;;;;;;;0.35;0.20;;;13.80;99.90;;;;;;5034875;28;20029;-71
2021/01/29 09:32:03;;;;;;;0.50;0.28;;;14.10;99.90;;;;;;5035690;28;20383;-71
2021/01/29 09:34:38;;;;;;;2.80;0.20;;;14.70;99.90;;;;;;5033496;28;20387;-71
2021/01/29 09:37:12;;;;;;;1.70;0.47;;;13.70;99.90;;;;;;5034963;28;20025;-71
2021/01/29 09:39:52;;;;;;;2.30;0.40;;;14.80;99.90;;;;;;5034250;28;20371;-71
2021/01/29 09:42:38;;;;;;;2.15;0.40;;;16.60;99.90;;;;;;5028245;28;20022;-70
2021/01/29 09:45:14;;;;;;;1.05;0.40;;;16.40;99.90;;;;;;5014396;28;20026;-72
2021/01/29 09:47:44;;;;;;;1.33;0.47;;;17.10;99.90;;;;;;5015354;28;20022;-73
2021/01/29 09:50:22;;;;;;;1.05;0.60;;;19.80;98.00;;;;;;5014630;28;20034;-70
2021/01/29 09:53:07;;;;;;;1.48;0.50;;;21.10;94.40;;;;;;5012994;28;20484;-71
2021/01/29 09:56:04;;;;;;;1.23;0.40;;;22.80;86.90;;;;;;5012842;28;20029;-70
2021/01/29 09:59:07;;;;;;;3.10;0.60;;;22.40;85.10;;;;;;5013855;28;20029;-70
2021/01/29 10:01:40;;;;;;;1.52;0.40;;;21.40;88.70;;;;;;5012991;28;20114;-74
2021/01/29 10:04:26;;;;;;;1.00;0.40;;;18.50;93.30;;;;;;5015856;28;20092;-73
2021/01/29 10:06:59;;;;;;;1.55;0.70;;;17.30;96.10;;;;;;5014096;28;20042;-71
2021/01/29 10:09:33;;;;;;;0.50;0.40;;;14.60;99.90;;;;;;5013954;28;20483;-72
2021/01/29 10:12:01;;;;;;;0.77;0.47;;;14.60;99.90;;;;;;5017330;28;20491;-71
2021/01/29 10:14:58;;;;;;;2.20;0.50;;;14.00;99.90;;;;;;5032133;28;20108;-72
2021/01/29 10:17:23;;;;;;;2.15;0.50;;;13.80;99.90;;;;;;5032296;28;20022;-71
2021/01/29 10:20:01;;;;;;;2.00;0.80;;;15.10;99.90;;;;;;5033553;28;20499;-70
2021/01/29 10:22:38;;;;;;;6.10;1.92;;;15.20;99.90;;;;;;5033404;28;20017;-71
2021/01/29 10:25:36;;;;;;;6.30;2.45;;;14.30;99.90;;;;;;5033066;28;20034;-74
2021/01/29 10:28:40;;;;;;;3.05;0.98;;;14.10;99.90;;;;;;5031952;28;20037;-74
2021/01/29 10:31:08;;;;;;;5.05;1.73;;;15.20;99.90;;;;;;5033665;28;20036;-73
2021/01/29 10:33:39;;;;;;;25.98;13.68;;;16.50;99.90;;;;;;5032910;28;20390;-73
2021/01/29 10:36:20;;;;;;;3.90;1.67;;;16.50;99.50;;;;;;5031851;28;20087;-72
2021/01/29 10:38:52;;;;;;;1.60;0.90;;;16.10;99.90;;;;;;5032979;28;20041;-73
2021/01/29 10:41:37;;;;;;;;;;;16.10;99.00;;;;;;5033155;28;20104;-71
2021/01/29 10:44:29;;;;;;;0.98;0.38;;;16.50;98.20;;;;;;5030872;28;20020;-71
2021/01/29 10:47:22;;;;;;;1.40;0.60;;;17.30;96.40;;;;;;5032389;28;20036;-72
2021/01/29 10:50:12;;;;;;;1.42;0.45;;;16.00;98.90;;;;;;5031293;28;20037;-72
2021/01/29 10:53:01;;;;;;;2.78;0.60;;;13.90;99.90;;;;;;5032293;28;20021;-72
2021/01/29 10:55:32;;;;;;;2.65;1.08;;;13.30;99.90;;;;;;5032474;28;20029;-73
2021/01/29 10:58:22;;;;;;;4.20;0.80;;;12.90;99.90;;;;;;5032385;28;20450;-72
2021/01/29 11:01:04;;;;;;;3.55;1.27;;;12.30;99.90;;;;;;5012546;28;20030;-72
2021/01/29 11:04:04;;;;;;;1.75;0.63;;;12.10;99.90;;;;;;5012436;28;20061;-74
2021/01/29 11:06:42;;;;;;;3.05;0.68;;;11.60;99.90;;;;;;5032210;28;20025;-74
2021/01/29 11:09:21;;;;;;;1.90;0.85;;;11.20;99.90;;;;;;5024668;28;20112;-75
2021/01/29 11:12:00;;;;;;;3.03;0.70;;;10.90;99.90;;;;;;5018055;28;20022;-73
2021/01/29 11:14:33;;;;;;;2.40;0.50;;;10.80;99.90;;;;;;5034001;28;20025;-75
2021/01/29 11:17:04;;;;;;;1.02;0.50;;;10.60;99.90;;;;;;5033048;28;20083;-72
2021/01/29 11:19:42;;;;;;;5.35;1.00;;;10.50;99.90;;;;;;5037405;28;20077;-73
2021/01/29 11:22:29;;;;;;;2.78;0.70;;;10.40;99.90;;;;;;5037553;28;20045;-72
2021/01/29 11:25:16;;;;;;;3.47;0.75;;;10.30;99.90;;;;;;5029675;28;20021;-71
2021/01/29 11:27:49;;;;;;;2.80;0.70;;;10.20;99.90;;;;;;5017234;28;20041;-70
2021/01/29 11:30:23;;;;;;;3.30;0.70;;;9.90;99.90;;;;;;5033181;28;20115;-73
2021/01/29 11:33:09;;;;;;;1.40;0.75;;;9.80;99.90;;;;;;5032322;28;20025;-71
2021/01/29 11:35:37;;;;;;;2.83;0.50;;;9.70;99.90;;;;;;5032976;28;20021;-72
2021/01/29 11:38:11;;;;;;;1.52;0.70;;;9.70;99.90;;;;;;5032573;28;20022;-71
2021/01/29 11:40:57;;;;;;;1.67;0.55;;;9.70;99.90;;;;;;5033173;28;20025;-71
2021/01/29 11:43:43;;;;;;;2.78;0.95;;;9.70;99.90;;;;;;5032866;28;20372;-70
2021/01/29 11:46:11;;;;;;;2.75;0.68;;;9.70;99.90;;;;;;5032685;28;20040;-69
2021/01/29 11:49:06;;;;;;;1.70;0.50;;;9.70;99.90;;;;;;5032340;28;20025;-65
2021/01/29 11:51:38;;;;;;;1.65;0.40;;;10.00;99.90;;;;;;5023969;28;20054;-67
2021/01/29 11:54:16;;;;;;;1.65;0.60;;;10.20;99.90;;;;;;5030800;28;20419;-67
2021/01/29 11:56:55;;;;;;;1.95;0.50;;;10.40;99.90;;;;;;5031983;28;20025;-66
2021/01/29 11:59:29;;;;;;;1.52;0.55;;;11.10;99.90;;;;;;5032880;28;20391;-67
2021/01/29 12:02:25;;;;;;;0.98;0.47;;;13.40;99.90;;;;;;5032447;28;20097;-67
2021/01/29 12:05:26;;;;;;;1.80;0.70;;;16.30;99.90;;;;;;5028115;28;20030;-66
2021/01/29 12:08:17;;;;;;;3.53;0.30;;;20.20;96.50;;;;;;5030292;28;20033;-68
2021/01/29 12:10:59;;;;;;;0.20;0.20;;;19.50;91.50;;;;;;5018152;28;20156;-67
2021/01/29 12:14:02;;;;;;;0.70;0.20;;;16.70;96.30;;;;;;5030930;28;20085;-67
2021/01/29 12:16:31;;;;;;;0.80;0.43;;;16.50;96.60;;;;;;5023991;28;20060;-70
2021/01/29 12:18:58;;;;;;;0.85;0.30;;;15.90;98.10;;;;;;5011498;28;20173;-70
2021/01/29 12:21:23;;;;;;;0.43;0.40;;;15.40;99.40;;;;;;5010991;28;20441;-71
2021/01/29 12:24:28;;;;;;;1.00;0.30;;;15.50;98.70;;;;;;5009946;28;20100;-71
2021/01/29 12:27:00;;;;;;;0.75;0.43;;;15.20;99.30;;;;;;4981211;28;20038;-72
2021/01/29 12:29:38;;;;;;;1.52;0.38;;;15.30;99.90;;;;;;5025542;28;20029;-73
2021/01/29 12:32:30;;;;;;;0.90;0.30;;;15.20;99.90;;;;;;5030211;28;20050;-72
2021/01/29 12:35:14;;;;;;;1.90;0.68;;;14.40;99.90;;;;;;5022644;28;20511;-73
2021/01/29 12:38:09;;;;;;;1.17;0.60;;;13.80;99.90;;;;;;5031116;28;20095;-72
2021/01/29 12:40:51;;;;;;;1.23;0.40;;;14.40;99.90;;;;;;5030949;28;20029;-69
2021/01/29 12:43:38;;;;;;;1.02;0.40;;;14.40;99.90;;;;;;5030426;28;20026;-69
2021/01/29 12:46:35;;;;;;;1.25;0.50;;;13.60;99.90;;;;;;5031210;28;20369;-69
2021/01/29 12:49:10;;;;;;;3.25;0.80;;;13.20;99.90;;;;;;5027951;28;20045;-68
2021/01/29 12:51:46;;;;;;;1.58;0.52;;;12.60;99.90;;;;;;5031119;28;20029;-70
2021/01/29 12:54:27;;;;;;;2.17;0.40;;;11.90;99.90;;;;;;5030072;28;20021;-70
2021/01/29 12:57:03;;;;;;;3.60;0.90;;;11.90;99.90;;;;;;5030862;28;20022;-72
2021/01/29 12:59:43;;;;;;;5.20;0.70;;;11.70;99.90;;;;;;5031367;28;20033;-73
2021/01/29 13:02:15;;;;;;;3.33;1.63;;;11.40;99.90;;;;;;5033122;28;20022;-73
2021/01/29 13:04:54;;;;;;;3.35;0.93;;;11.10;99.90;;;;;;5034308;28;20408;-73
2021/01/29 13:07:26;;;;;;;4.13;0.70;;;11.10;99.90;;;;;;5034262;28;20041;-72
2021/01/29 13:10:17;;;;;;;4.75;0.90;;;10.80;99.90;;;;;;5032919;28;20055;-72
2021/01/29 13:13:03;;;;;;;3.70;1.30;;;10.60;99.90;;;;;;5035057;28;20032;-71
2021/01/29 13:16:13;;;;;;;6.45;0.95;;;10.50;99.90;;;;;;5036933;28;20037;-73
2021/01/29 13:19:13;;;;;;;2.75;1.30;;;10.40;99.90;;;;;;5021884;28;20041;-74
2021/01/29 13:21:50;;;;;;;2.28;0.75;;;10.30;99.90;;;;;;5031276;28;20096;-73
2021/01/29 13:24:29;;;;;;;1.17;0.52;;;10.10;99.90;;;;;;5033734;28;20021;-72
2021/01/29 13:26:59;;;;;;;0.30;0.25;;;10.20;99.90;;;;;;5037095;28;20084;-73
2021/01/29 13:29:31;;;;;;;3.22;0.55;;;10.10;99.90;;;;;;5040143;28;20061;-71
2021/01/29 13:32:27;;;;;;;0.73;0.40;;;9.90;99.90;;;;;;5031212;28;20644;-71
2021/01/29 13:34:55;;;;;;;2.00;0.50;;;9.80;99.90;;;;;;5030838;28;20036;-72
2021/01/29 13:37:29;;;;;;;1.67;0.80;;;9.70;99.90;;;;;;5035276;28;20113;-72
2021/01/29 13:40:24;;;;;;;1.63;0.50;;;9.50;99.90;;;;;;5034353;28;20018;-70
2021/01/29 13:42:50;;;;;;;6.68;0.60;;;9.70;99.90;;;;;;5032390;28;20125;-68
2021/01/29 13:45:25;;;;;;;5.60;1.60;;;10.10;99.90;;;;;;5034088;28;20053;-70
2021/01/29 13:48:16;;;;;;;0.82;0.82;;;11.20;99.90;;;;;;5034638;28;20087;-74
2021/01/29 13:50:51;;;;;;;1.38;0.40;;;11.20;99.90;;;;;;5034278;28;20028;-72
2021/01/29 13:53:29;;;;;;;1.77;0.43;;;10.60;99.90;;;;;;5034070;28;20037;-73
2021/01/29 13:56:00;;;;;;;3.55;0.60;;;10.20;99.90;;;;;;5033978;28;20104;-74
2021/01/29 13:58:37;;;;;;;0.40;0.40;;;10.10;99.90;;;;;;5016945;28;20026;-75
2021/01/29 14:01:12;;;;;;;1.42;0.50;;;10.20;99.90;;;;;;5014428;28;20434;-74
2021/01/29 14:03:50;;;;;;;0.40;0.38;;;11.70;99.90;;;;;;5014067;28;20033;-73